sensor_id;sensor_type;location;lat;lon;timestamp;pressure;altitude;pressure_sealevel;temperature;humidity
64095;BME280;50353;51.420;5.682;2022-07-06T00:02:14;102324.19;;;13.67;67.32
64095;BME280;50353;51.420;5.682;2022-07-06T00:04:40;102325.25;;;13.82;66.15
64095;BME280;50353;51.420;5.682;2022-07-06T00:07:05;102323.91;;;13.73;66.77
64095;BME280;50353;51.420;5.682;2022-07-06T00:09:30;102327.78;;;13.66;67.15
64095;BME280;50353;51.420;5.682;2022-07-06T00:11:56;102324.78;;;13.91;66.40
64095;BME280;50353;51.420;5.682;2022-07-06T00:14:21;102320.94;;;13.79;66.85
64095;BME280;50353;51.420;5.682;2022-07-06T00:16:46;102326.25;;;13.79;66.31
64095;BME280;50353;51.420;5.682;2022-07-06T00:19:12;102321.44;;;13.51;67.73
64095;BME280;50353;51.420;5.682;2022-07-06T00:21:37;102325.72;;;13.90;66.57
64095;BME280;50353;51.420;5.682;2022-07-06T00:24:03;102327.22;;;13.59;66.92
64095;BME280;50353;51.420;5.682;2022-07-06T00:26:28;102324.19;;;13.67;66.57
64095;BME280;50353;51.420;5.682;2022-07-06T00:28:54;102318.38;;;13.95;65.60
64095;BME280;50353;51.420;5.682;2022-07-06T00:31:19;102318.66;;;13.35;67.58
64095;BME280;50353;51.420;5.682;2022-07-06T00:33:45;102326.03;;;13.28;67.41
64095;BME280;50353;51.420;5.682;2022-07-06T00:36:10;102328.69;;;13.28;67.12
64095;BME280;50353;51.420;5.682;2022-07-06T00:38:35;102325.41;;;13.42;67.04
64095;BME280;50353;51.420;5.682;2022-07-06T00:41:01;102329.72;;;13.07;68.87
64095;BME280;50353;51.420;5.682;2022-07-06T00:43:26;102329.06;;;13.40;67.91
64095;BME280;50353;51.420;5.682;2022-07-06T00:45:51;102333.28;;;13.25;68.09
64095;BME280;50353;51.420;5.682;2022-07-06T00:48:17;102330.13;;;13.16;68.16
64095;BME280;50353;51.420;5.682;2022-07-06T00:50:42;102329.72;;;13.26;68.00
64095;BME280;50353;51.420;5.682;2022-07-06T00:53:08;102329.34;;;13.33;67.73
64095;BME280;50353;51.420;5.682;2022-07-06T00:55:37;102331.06;;;13.15;67.78
64095;BME280;50353;51.420;5.682;2022-07-06T00:58:05;102329.72;;;13.26;68.28
64095;BME280;50353;51.420;5.682;2022-07-06T01:00:32;102325.19;;;13.09;68.90
64095;BME280;50353;51.420;5.682;2022-07-06T01:02:57;102324.25;;;13.10;70.23
64095;BME280;50353;51.420;5.682;2022-07-06T01:05:23;102327.22;;;13.04;69.56
64095;BME280;50353;51.420;5.682;2022-07-06T01:07:50;102322.53;;;12.90;69.27
64095;BME280;50353;51.420;5.682;2022-07-06T01:10:17;102336.28;;;13.17;68.26
64095;BME280;50353;51.420;5.682;2022-07-06T01:12:44;102328.84;;;13.25;68.35
64095;BME280;50353;51.420;5.682;2022-07-06T01:15:15;102328.13;;;13.22;68.23
64095;BME280;50353;51.420;5.682;2022-07-06T01:17:41;102325.47;;;13.22;67.13
64095;BME280;50353;51.420;5.682;2022-07-06T01:22:37;102313.25;;;12.60;69.30
64095;BME280;50353;51.420;5.682;2022-07-06T01:25:04;102323.09;;;12.77;69.50
64095;BME280;50353;51.420;5.682;2022-07-06T01:27:30;102327.28;;;13.02;68.51
64095;BME280;50353;51.420;5.682;2022-07-06T01:29:55;102322.09;;;12.99;68.56
64095;BME280;50353;51.420;5.682;2022-07-06T01:32:20;102325.22;;;12.69;69.96
64095;BME280;50353;51.420;5.682;2022-07-06T01:34:46;102328.50;;;12.55;69.25
64095;BME280;50353;51.420;5.682;2022-07-06T01:37:11;102321.59;;;12.91;68.82
64095;BME280;50353;51.420;5.682;2022-07-06T01:39:36;102321.38;;;12.76;69.15
64095;BME280;50353;51.420;5.682;2022-07-06T01:42:02;102318.00;;;12.92;69.00
64095;BME280;50353;51.420;5.682;2022-07-06T01:44:27;102320.16;;;12.83;69.19
64095;BME280;50353;51.420;5.682;2022-07-06T01:46:53;102326.09;;;12.70;69.41
64095;BME280;50353;51.420;5.682;2022-07-06T01:49:18;102322.22;;;12.58;69.44
64095;BME280;50353;51.420;5.682;2022-07-06T01:51:43;102319.13;;;12.27;70.04
64095;BME280;50353;51.420;5.682;2022-07-06T01:54:08;102319.28;;;12.64;69.06
64095;BME280;50353;51.420;5.682;2022-07-06T01:56:34;102316.75;;;12.61;69.53
64095;BME280;50353;51.420;5.682;2022-07-06T01:58:59;102317.59;;;12.82;69.19
64095;BME280;50353;51.420;5.682;2022-07-06T02:01:24;102309.78;;;12.58;68.76
64095;BME280;50353;51.420;5.682;2022-07-06T02:03:50;102308.47;;;12.68;68.76
64095;BME280;50353;51.420;5.682;2022-07-06T02:06:15;102311.19;;;12.67;69.54
64095;BME280;50353;51.420;5.682;2022-07-06T02:08:41;102314.47;;;12.53;70.13
64095;BME280;50353;51.420;5.682;2022-07-06T02:11:07;102312.66;;;12.54;70.19
64095;BME280;50353;51.420;5.682;2022-07-06T02:13:33;102314.31;;;12.56;70.11
64095;BME280;50353;51.420;5.682;2022-07-06T02:15:58;102315.56;;;12.47;69.43
64095;BME280;50353;51.420;5.682;2022-07-06T02:18:24;102312.84;;;12.30;70.15
64095;BME280;50353;51.420;5.682;2022-07-06T02:20:49;102315.47;;;12.50;69.62
64095;BME280;50353;51.420;5.682;2022-07-06T02:23:15;102311.41;;;12.42;69.94
64095;BME280;50353;51.420;5.682;2022-07-06T02:25:40;102309.75;;;12.39;70.04
64095;BME280;50353;51.420;5.682;2022-07-06T02:28:06;102313.00;;;12.25;70.52
64095;BME280;50353;51.420;5.682;2022-07-06T02:30:31;102312.41;;;12.39;70.85
64095;BME280;50353;51.420;5.682;2022-07-06T02:32:56;102309.63;;;12.42;70.85
64095;BME280;50353;51.420;5.682;2022-07-06T02:35:21;102313.59;;;12.32;70.33
64095;BME280;50353;51.420;5.682;2022-07-06T02:37:47;102311.47;;;12.40;70.82
64095;BME280;50353;51.420;5.682;2022-07-06T02:40:12;102307.09;;;12.39;70.69
64095;BME280;50353;51.420;5.682;2022-07-06T02:42:37;102316.31;;;12.51;70.94
64095;BME280;50353;51.420;5.682;2022-07-06T02:45:03;102312.44;;;12.79;70.10
64095;BME280;50353;51.420;5.682;2022-07-06T02:47:28;102310.78;;;12.37;71.41
64095;BME280;50353;51.420;5.682;2022-07-06T02:49:54;102306.03;;;12.43;71.00
64095;BME280;50353;51.420;5.682;2022-07-06T02:52:19;102307.66;;;12.27;71.77
64095;BME280;50353;51.420;5.682;2022-07-06T02:54:45;102310.41;;;12.44;71.45
64095;BME280;50353;51.420;5.682;2022-07-06T02:57:10;102310.81;;;12.14;72.79
64095;BME280;50353;51.420;5.682;2022-07-06T02:59:36;102314.16;;;12.20;71.72
64095;BME280;50353;51.420;5.682;2022-07-06T03:02:03;102314.16;;;12.20;72.45
64095;BME280;50353;51.420;5.682;2022-07-06T03:04:29;102321.50;;;12.33;71.66
64095;BME280;50353;51.420;5.682;2022-07-06T03:06:54;102321.84;;;12.26;72.65
64095;BME280;50353;51.420;5.682;2022-07-06T03:09:19;102317.84;;;12.36;71.38
64095;BME280;50353;51.420;5.682;2022-07-06T03:11:44;102315.06;;;12.39;71.95
64095;BME280;50353;51.420;5.682;2022-07-06T03:14:10;102310.75;;;12.16;71.74
64095;BME280;50353;51.420;5.682;2022-07-06T03:16:35;102313.16;;;12.22;72.51
64095;BME280;50353;51.420;5.682;2022-07-06T03:19:00;102314.13;;;12.40;71.59
64095;BME280;50353;51.420;5.682;2022-07-06T03:21:25;102324.06;;;12.35;72.15
64095;BME280;50353;51.420;5.682;2022-07-06T03:23:51;102320.63;;;12.54;71.74
64095;BME280;50353;51.420;5.682;2022-07-06T03:26:17;102327.78;;;12.10;71.49
64095;BME280;50353;51.420;5.682;2022-07-06T03:28:42;102326.53;;;11.98;72.64
64095;BME280;50353;51.420;5.682;2022-07-06T03:31:07;102331.25;;;12.12;72.11
64095;BME280;50353;51.420;5.682;2022-07-06T03:33:33;102332.50;;;12.04;72.51
64095;BME280;50353;51.420;5.682;2022-07-06T03:35:58;102330.44;;;12.10;71.35
64095;BME280;50353;51.420;5.682;2022-07-06T03:38:24;102334.34;;;12.02;71.29
64095;BME280;50353;51.420;5.682;2022-07-06T03:40:49;102329.00;;;11.81;72.93
64095;BME280;50353;51.420;5.682;2022-07-06T03:43:14;102320.91;;;11.84;73.20
64095;BME280;50353;51.420;5.682;2022-07-06T03:45:39;102325.66;;;11.98;72.41
64095;BME280;50353;51.420;5.682;2022-07-06T03:48:05;102323.00;;;11.98;72.13
64095;BME280;50353;51.420;5.682;2022-07-06T03:50:30;102327.13;;;11.83;73.25
64095;BME280;50353;51.420;5.682;2022-07-06T03:52:55;102333.34;;;11.82;74.18
64095;BME280;50353;51.420;5.682;2022-07-06T03:55:21;102335.34;;;11.77;74.91
64095;BME280;50353;51.420;5.682;2022-07-06T03:57:46;102331.59;;;11.82;73.45
64095;BME280;50353;51.420;5.682;2022-07-06T04:00:12;102328.94;;;11.82;73.43
64095;BME280;50353;51.420;5.682;2022-07-06T04:02:37;102328.81;;;11.86;73.48
64095;BME280;50353;51.420;5.682;2022-07-06T04:05:03;102331.72;;;11.79;73.72
64095;BME280;50353;51.420;5.682;2022-07-06T04:07:28;102324.53;;;12.04;72.84
64095;BME280;50353;51.420;5.682;2022-07-06T04:09:53;102313.47;;;12.14;72.76
64095;BME280;50353;51.420;5.682;2022-07-06T04:12:19;102326.41;;;11.79;73.72
64095;BME280;50353;51.420;5.682;2022-07-06T04:14:44;102328.53;;;12.14;73.35
64095;BME280;50353;51.420;5.682;2022-07-06T04:17:09;102329.53;;;12.32;73.12
64095;BME280;50353;51.420;5.682;2022-07-06T04:19:53;102329.84;;;12.45;72.62
64095;BME280;50353;51.420;5.682;2022-07-06T04:22:18;102327.09;;;12.67;71.53
64095;BME280;50353;51.420;5.682;2022-07-06T04:24:44;102324.44;;;12.27;72.88
64095;BME280;50353;51.420;5.682;2022-07-06T04:27:09;102317.31;;;12.48;72.91
64095;BME280;50353;51.420;5.682;2022-07-06T04:29:34;102322.69;;;12.47;73.61
64095;BME280;50353;51.420;5.682;2022-07-06T04:32:00;102308.91;;;12.78;72.76
64095;BME280;50353;51.420;5.682;2022-07-06T04:34:25;102323.16;;;12.36;74.41
64095;BME280;50353;51.420;5.682;2022-07-06T04:36:50;102317.16;;;12.72;73.48
64095;BME280;50353;51.420;5.682;2022-07-06T04:39:16;102318.25;;;12.66;74.07
64095;BME280;50353;51.420;5.682;2022-07-06T04:41:41;102312.97;;;12.66;73.79
64095;BME280;50353;51.420;5.682;2022-07-06T04:44:06;102314.25;;;12.58;74.31
64095;BME280;50353;51.420;5.682;2022-07-06T04:46:31;102312.06;;;12.87;73.80
64095;BME280;50353;51.420;5.682;2022-07-06T04:48:57;102315.72;;;12.84;74.01
64095;BME280;50353;51.420;5.682;2022-07-06T04:51:22;102319.25;;;13.04;74.01
64095;BME280;50353;51.420;5.682;2022-07-06T04:53:47;102317.78;;;13.15;73.86
64095;BME280;50353;51.420;5.682;2022-07-06T04:56:12;102321.44;;;13.13;74.67
64095;BME280;50353;51.420;5.682;2022-07-06T04:58:38;102320.75;;;13.09;74.93
64095;BME280;50353;51.420;5.682;2022-07-06T05:01:03;102316.09;;;12.95;75.97
64095;BME280;50353;51.420;5.682;2022-07-06T05:03:28;102324.41;;;13.26;75.55
64095;BME280;50353;51.420;5.682;2022-07-06T05:05:54;102321.31;;;13.16;75.64
64095;BME280;50353;51.420;5.682;2022-07-06T05:08:19;102323.19;;;13.69;72.89
64095;BME280;50353;51.420;5.682;2022-07-06T05:10:44;102321.38;;;13.52;74.39
64095;BME280;50353;51.420;5.682;2022-07-06T05:13:10;102330.56;;;13.45;75.64
64095;BME280;50353;51.420;5.682;2022-07-06T05:15:35;102328.22;;;14.11;71.68
64095;BME280;50353;51.420;5.682;2022-07-06T05:18:00;102334.59;;;13.54;75.56
64095;BME280;50353;51.420;5.682;2022-07-06T05:20:26;102333.25;;;13.63;75.35
64095;BME280;50353;51.420;5.682;2022-07-06T05:22:51;102328.38;;;14.08;73.33
64095;BME280;50353;51.420;5.682;2022-07-06T05:25:16;102331.84;;;14.61;71.01
64095;BME280;50353;51.420;5.682;2022-07-06T05:27:41;102334.97;;;15.02;67.62
64095;BME280;50353;51.420;5.682;2022-07-06T05:30:07;102337.25;;;14.93;70.68
64095;BME280;50353;51.420;5.682;2022-07-06T05:32:33;102339.09;;;15.08;70.51
64095;BME280;50353;51.420;5.682;2022-07-06T05:34:58;102335.19;;;14.98;71.85
64095;BME280;50353;51.420;5.682;2022-07-06T05:37:23;102337.09;;;14.96;71.87
64095;BME280;50353;51.420;5.682;2022-07-06T05:39:48;102340.78;;;15.57;68.44
64095;BME280;50353;51.420;5.682;2022-07-06T05:42:15;102344.28;;;15.74;68.42
64095;BME280;50353;51.420;5.682;2022-07-06T05:44:41;102346.25;;;15.70;68.41
64095;BME280;50353;51.420;5.682;2022-07-06T05:47:06;102350.06;;;15.66;69.09
64095;BME280;50353;51.420;5.682;2022-07-06T05:49:50;102344.72;;;15.82;69.69
64095;BME280;50353;51.420;5.682;2022-07-06T05:52:34;102343.69;;;15.84;68.18
64095;BME280;50353;51.420;5.682;2022-07-06T05:54:59;102346.63;;;15.64;70.58
64095;BME280;50353;51.420;5.682;2022-07-06T05:57:24;102350.66;;;15.71;69.82
64095;BME280;50353;51.420;5.682;2022-07-06T05:59:50;102352.53;;;15.69;70.12
64095;BME280;50353;51.420;5.682;2022-07-06T06:02:15;102348.47;;;15.94;66.28
64095;BME280;50353;51.420;5.682;2022-07-06T06:04:40;102351.19;;;16.08;68.62
64095;BME280;50353;51.420;5.682;2022-07-06T06:07:06;102354.41;;;16.44;64.60
64095;BME280;50353;51.420;5.682;2022-07-06T06:09:31;102357.38;;;16.82;62.04
64095;BME280;50353;51.420;5.682;2022-07-06T06:11:56;102362.53;;;17.00;64.91
64095;BME280;50353;51.420;5.682;2022-07-06T06:14:22;102349.19;;;17.00;65.39
64095;BME280;50353;51.420;5.682;2022-07-06T06:16:47;102353.78;;;16.98;64.81
64095;BME280;50353;51.420;5.682;2022-07-06T06:19:13;102353.38;;;17.18;62.81
64095;BME280;50353;51.420;5.682;2022-07-06T06:21:38;102357.94;;;17.16;63.57
64095;BME280;50353;51.420;5.682;2022-07-06T06:24:03;102354.09;;;16.48;65.40
64095;BME280;50353;51.420;5.682;2022-07-06T06:26:29;102363.84;;;16.78;65.21
64095;BME280;50353;51.420;5.682;2022-07-06T06:28:54;102349.38;;;17.11;63.79
64095;BME280;50353;51.420;5.682;2022-07-06T06:31:19;102344.34;;;17.34;62.60
64095;BME280;50353;51.420;5.682;2022-07-06T06:33:44;102344.44;;;17.32;63.39
64095;BME280;50353;51.420;5.682;2022-07-06T06:36:10;102349.66;;;17.76;61.81
64095;BME280;50353;51.420;5.682;2022-07-06T06:38:35;102343.28;;;17.91;60.82
64095;BME280;50353;51.420;5.682;2022-07-06T06:41:00;102351.66;;;17.99;61.30
64095;BME280;50353;51.420;5.682;2022-07-06T06:43:26;102354.16;;;18.28;59.64
64095;BME280;50353;51.420;5.682;2022-07-06T06:45:52;102349.81;;;18.27;56.47
64095;BME280;50353;51.420;5.682;2022-07-06T06:48:17;102357.69;;;18.03;57.35
64095;BME280;50353;51.420;5.682;2022-07-06T06:50:44;102349.22;;;18.09;57.49
64095;BME280;50353;51.420;5.682;2022-07-06T06:53:10;102360.38;;;17.88;58.17
64095;BME280;50353;51.420;5.682;2022-07-06T06:55:35;102362.81;;;17.51;58.23
64095;BME280;50353;51.420;5.682;2022-07-06T06:58:01;102363.06;;;17.61;58.74
64095;BME280;50353;51.420;5.682;2022-07-06T07:00:26;102356.41;;;18.08;56.17
64095;BME280;50353;51.420;5.682;2022-07-06T07:02:51;102360.28;;;18.43;56.30
64095;BME280;50353;51.420;5.682;2022-07-06T07:05:17;102355.44;;;18.87;55.85
64095;BME280;50353;51.420;5.682;2022-07-06T07:07:42;102358.97;;;19.00;53.99
64095;BME280;50353;51.420;5.682;2022-07-06T07:10:08;102356.72;;;19.07;53.39
64095;BME280;50353;51.420;5.682;2022-07-06T07:12:33;102361.53;;;19.15;54.02
64095;BME280;50353;51.420;5.682;2022-07-06T07:14:59;102359.31;;;19.46;53.16
64095;BME280;50353;51.420;5.682;2022-07-06T07:17:25;102366.13;;;19.74;51.74
64095;BME280;50353;51.420;5.682;2022-07-06T07:19:50;102357.25;;;20.09;50.82
64095;BME280;50353;51.420;5.682;2022-07-06T07:22:15;102357.63;;;20.04;50.46
64095;BME280;50353;51.420;5.682;2022-07-06T07:24:40;102365.03;;;19.76;51.54
64095;BME280;50353;51.420;5.682;2022-07-06T07:27:06;102355.66;;;20.53;50.29
64095;BME280;50353;51.420;5.682;2022-07-06T07:29:31;102359.09;;;21.01;48.81
64095;BME280;50353;51.420;5.682;2022-07-06T07:31:57;102353.75;;;20.78;49.63
64095;BME280;50353;51.420;5.682;2022-07-06T07:34:22;102360.41;;;21.06;47.05
64095;BME280;50353;51.420;5.682;2022-07-06T07:36:47;102356.84;;;20.38;49.88
64095;BME280;50353;51.420;5.682;2022-07-06T07:39:13;102359.91;;;20.56;49.35
64095;BME280;50353;51.420;5.682;2022-07-06T07:41:38;102366.28;;;20.08;50.58
64095;BME280;50353;51.420;5.682;2022-07-06T07:44:03;102374.56;;;19.56;49.25
64095;BME280;50353;51.420;5.682;2022-07-06T07:46:29;102368.63;;;19.40;51.15
64095;BME280;50353;51.420;5.682;2022-07-06T07:48:54;102380.69;;;19.58;50.41
64095;BME280;50353;51.420;5.682;2022-07-06T07:51:19;102374.28;;;19.48;50.09
64095;BME280;50353;51.420;5.682;2022-07-06T07:53:45;102380.25;;;19.28;51.92
64095;BME280;50353;51.420;5.682;2022-07-06T07:56:10;102360.28;;;20.40;49.73
64095;BME280;50353;51.420;5.682;2022-07-06T07:58:36;102370.34;;;20.72;49.65
64095;BME280;50353;51.420;5.682;2022-07-06T08:01:01;102364.91;;;20.38;49.58
64095;BME280;50353;51.420;5.682;2022-07-06T08:03:27;102358.81;;;20.47;48.79
64095;BME280;50353;51.420;5.682;2022-07-06T08:05:52;102362.47;;;20.46;48.27
64095;BME280;50353;51.420;5.682;2022-07-06T08:08:18;102356.00;;;20.60;48.36
64095;BME280;50353;51.420;5.682;2022-07-06T08:10:43;102354.97;;;21.40;47.78
64095;BME280;50353;51.420;5.682;2022-07-06T08:13:09;102352.50;;;21.49;45.54
64095;BME280;50353;51.420;5.682;2022-07-06T08:15:36;102354.16;;;21.17;45.70
64095;BME280;50353;51.420;5.682;2022-07-06T08:18:01;102363.78;;;21.42;43.75
64095;BME280;50353;51.420;5.682;2022-07-06T08:20:26;102362.41;;;21.59;44.24
64095;BME280;50353;51.420;5.682;2022-07-06T08:22:51;102365.72;;;21.63;43.60
64095;BME280;50353;51.420;5.682;2022-07-06T08:25:17;102362.06;;;21.85;42.23
64095;BME280;50353;51.420;5.682;2022-07-06T08:27:43;102355.91;;;21.73;44.52
64095;BME280;50353;51.420;5.682;2022-07-06T08:30:10;102352.44;;;22.46;43.91
64095;BME280;50353;51.420;5.682;2022-07-06T08:32:42;102350.56;;;22.68;43.19
64095;BME280;50353;51.420;5.682;2022-07-06T08:35:09;102352.91;;;22.51;42.67
64095;BME280;50353;51.420;5.682;2022-07-06T08:37:35;102355.97;;;21.83;43.50
64095;BME280;50353;51.420;5.682;2022-07-06T08:40:00;102357.25;;;22.42;44.00
64095;BME280;50353;51.420;5.682;2022-07-06T08:42:29;102359.56;;;22.47;42.30
64095;BME280;50353;51.420;5.682;2022-07-06T08:44:58;102351.38;;;22.89;42.23
64095;BME280;50353;51.420;5.682;2022-07-06T08:47:26;102350.19;;;23.13;41.87
64095;BME280;50353;51.420;5.682;2022-07-06T08:49:51;102352.06;;;22.91;41.68
64095;BME280;50353;51.420;5.682;2022-07-06T08:52:17;102350.91;;;22.53;43.44
64095;BME280;50353;51.420;5.682;2022-07-06T08:54:43;102355.16;;;22.77;42.37
64095;BME280;50353;51.420;5.682;2022-07-06T08:57:08;102348.44;;;21.98;44.08
64095;BME280;50353;51.420;5.682;2022-07-06T08:59:34;102348.41;;;22.61;42.12
64095;BME280;50353;51.420;5.682;2022-07-06T09:02:00;102341.28;;;22.91;40.41
64095;BME280;50353;51.420;5.682;2022-07-06T09:04:26;102343.94;;;22.51;41.44
64095;BME280;50353;51.420;5.682;2022-07-06T09:06:52;102342.72;;;22.34;43.26
64095;BME280;50353;51.420;5.682;2022-07-06T09:09:23;102355.31;;;22.85;41.98
64095;BME280;50353;51.420;5.682;2022-07-06T09:11:49;102338.38;;;22.73;43.05
64095;BME280;50353;51.420;5.682;2022-07-06T09:14:15;102347.72;;;23.00;41.93
64095;BME280;50353;51.420;5.682;2022-07-06T09:16:40;102341.25;;;23.12;40.70
64095;BME280;50353;51.420;5.682;2022-07-06T09:19:07;102343.13;;;23.32;42.74
64095;BME280;50353;51.420;5.682;2022-07-06T09:21:33;102344.66;;;23.24;42.25
64095;BME280;50353;51.420;5.682;2022-07-06T09:24:05;102341.09;;;23.14;41.69
64095;BME280;50353;51.420;5.682;2022-07-06T09:26:31;102348.38;;;23.72;40.21
64095;BME280;50353;51.420;5.682;2022-07-06T09:28:57;102338.28;;;23.45;43.37
64095;BME280;50353;51.420;5.682;2022-07-06T09:31:23;102333.47;;;23.39;40.67
64095;BME280;50353;51.420;5.682;2022-07-06T09:39:24;102345.75;;;22.71;40.76
64095;BME280;50353;51.420;5.682;2022-07-06T09:41:53;102346.03;;;23.09;41.41
64095;BME280;50353;51.420;5.682;2022-07-06T09:44:21;102340.28;;;23.43;40.10
64095;BME280;50353;51.420;5.682;2022-07-06T09:46:47;102342.31;;;23.90;38.82
64095;BME280;50353;51.420;5.682;2022-07-06T09:49:16;102341.56;;;23.58;40.61
64095;BME280;50353;51.420;5.682;2022-07-06T09:51:44;102342.66;;;22.76;43.42
64095;BME280;50353;51.420;5.682;2022-07-06T09:54:09;102349.16;;;22.21;42.46
64095;BME280;50353;51.420;5.682;2022-07-06T09:56:39;102342.56;;;22.56;42.43
64095;BME280;50353;51.420;5.682;2022-07-06T09:59:08;102343.22;;;22.27;41.60
64095;BME280;50353;51.420;5.682;2022-07-06T10:01:34;102348.41;;;22.61;41.63
64095;BME280;50353;51.420;5.682;2022-07-06T10:04:00;102342.66;;;22.76;41.05
64095;BME280;50353;51.420;5.682;2022-07-06T10:06:25;102348.38;;;22.92;40.36
64095;BME280;50353;51.420;5.682;2022-07-06T10:08:52;102342.34;;;23.10;42.13
64095;BME280;50353;51.420;5.682;2022-07-06T10:11:18;102348.28;;;23.04;40.40
64095;BME280;50353;51.420;5.682;2022-07-06T10:13:44;102346.41;;;22.94;41.41
64095;BME280;50353;51.420;5.682;2022-07-06T10:16:13;102351.09;;;23.02;42.97
64095;BME280;50353;51.420;5.682;2022-07-06T10:18:40;102344.09;;;22.80;42.06
64095;BME280;50353;51.420;5.682;2022-07-06T10:21:06;102345.66;;;22.52;42.64
64095;BME280;50353;51.420;5.682;2022-07-06T10:23:33;102343.91;;;22.41;42.66
64095;BME280;50353;51.420;5.682;2022-07-06T10:26:00;102350.94;;;22.32;42.97
64095;BME280;50353;51.420;5.682;2022-07-06T10:28:27;102342.97;;;22.83;41.74
64095;BME280;50353;51.420;5.682;2022-07-06T10:30:52;102349.00;;;22.65;41.37
64095;BME280;50353;51.420;5.682;2022-07-06T10:33:18;102349.19;;;22.83;41.21
64095;BME280;50353;51.420;5.682;2022-07-06T10:35:44;102337.41;;;22.74;39.39
64095;BME280;50353;51.420;5.682;2022-07-06T10:38:10;102349.34;;;23.12;42.33
64095;BME280;50353;51.420;5.682;2022-07-06T10:40:39;102343.38;;;23.28;42.93
64095;BME280;50353;51.420;5.682;2022-07-06T10:43:45;102345.50;;;23.15;40.88
64095;BME280;50353;51.420;5.682;2022-07-06T10:46:17;102349.69;;;23.78;42.79
64095;BME280;50353;51.420;5.682;2022-07-06T10:48:46;102345.75;;;23.12;40.81
64095;BME280;50353;51.420;5.682;2022-07-06T10:51:22;102344.72;;;23.03;43.07
64095;BME280;50353;51.420;5.682;2022-07-06T10:53:55;102347.19;;;22.44;41.97
64095;BME280;50353;51.420;5.682;2022-07-06T10:56:38;102339.97;;;22.45;40.88
64095;BME280;50353;51.420;5.682;2022-07-06T10:59:09;102332.41;;;22.70;42.42
64095;BME280;50353;51.420;5.682;2022-07-06T11:01:36;102338.13;;;23.17;40.45
64095;BME280;50353;51.420;5.682;2022-07-06T11:06:31;102333.78;;;22.95;39.40
64095;BME280;50353;51.420;5.682;2022-07-06T11:09:04;102342.97;;;23.33;40.91
64095;BME280;50353;51.420;5.682;2022-07-06T11:14:16;102341.44;;;23.00;38.95
64095;BME280;50353;51.420;5.682;2022-07-06T11:19:14;102338.47;;;23.03;39.70
64095;BME280;50353;51.420;5.682;2022-07-06T11:24:11;102339.38;;;23.13;42.67
64095;BME280;50353;51.420;5.682;2022-07-06T11:26:37;102334.34;;;22.58;42.22
64095;BME280;50353;51.420;5.682;2022-07-06T11:29:04;102339.34;;;23.03;42.52
64095;BME280;50353;51.420;5.682;2022-07-06T11:31:34;102336.19;;;22.98;42.78
64095;BME280;50353;51.420;5.682;2022-07-06T11:34:00;102337.88;;;23.40;41.09
64095;BME280;50353;51.420;5.682;2022-07-06T11:36:26;102345.41;;;23.46;40.51
64095;BME280;50353;51.420;5.682;2022-07-06T11:38:51;102337.84;;;23.20;42.34
64095;BME280;50353;51.420;5.682;2022-07-06T11:41:17;102344.66;;;23.24;41.18
64095;BME280;50353;51.420;5.682;2022-07-06T11:43:43;102332.78;;;23.56;39.64
64095;BME280;50353;51.420;5.682;2022-07-06T11:48:49;102332.34;;;23.41;38.67
64095;BME280;50353;51.420;5.682;2022-07-06T11:51:14;102318.28;;;23.77;38.01
64095;BME280;50353;51.420;5.682;2022-07-06T11:53:45;102302.91;;;24.07;38.15
64095;BME280;50353;51.420;5.682;2022-07-06T11:56:11;102314.44;;;23.89;36.53
64095;BME280;50353;51.420;5.682;2022-07-06T11:58:38;102293.72;;;24.37;39.20
64095;BME280;50353;51.420;5.682;2022-07-06T12:01:07;102303.81;;;24.35;37.90
64095;BME280;50353;51.420;5.682;2022-07-06T12:03:33;102308.25;;;24.74;37.30
64095;BME280;50353;51.420;5.682;2022-07-06T12:06:03;102308.84;;;24.58;36.98
64095;BME280;50353;51.420;5.682;2022-07-06T12:08:29;102294.19;;;24.13;36.07
64095;BME280;50353;51.420;5.682;2022-07-06T12:10:55;102295.72;;;24.25;38.30
64095;BME280;50353;51.420;5.682;2022-07-06T12:13:22;102289.47;;;24.25;37.56
64095;BME280;50353;51.420;5.682;2022-07-06T12:15:47;102278.22;;;24.29;39.09
64095;BME280;50353;51.420;5.682;2022-07-06T12:18:13;102289.22;;;25.11;39.77
64095;BME280;50353;51.420;5.682;2022-07-06T12:20:38;102284.91;;;25.55;37.74
64095;BME280;50353;51.420;5.682;2022-07-06T12:23:07;102280.88;;;25.23;37.33
64095;BME280;50353;51.420;5.682;2022-07-06T12:25:34;102286.03;;;24.98;37.84
64095;BME280;50353;51.420;5.682;2022-07-06T12:27:59;102271.69;;;24.70;37.83
64095;BME280;50353;51.420;5.682;2022-07-06T12:30:24;102275.34;;;23.84;37.19
64095;BME280;50353;51.420;5.682;2022-07-06T12:33:15;102269.25;;;24.94;36.30
64095;BME280;50353;51.420;5.682;2022-07-06T12:35:44;102268.16;;;25.77;36.02
64095;BME280;50353;51.420;5.682;2022-07-06T12:38:09;102258.06;;;25.61;34.70
64095;BME280;50353;51.420;5.682;2022-07-06T12:40:38;102269.19;;;25.22;34.94
64095;BME280;50353;51.420;5.682;2022-07-06T12:43:04;102272.22;;;23.49;37.89
64095;BME280;50353;51.420;5.682;2022-07-06T12:45:30;102271.28;;;24.64;37.04
64095;BME280;50353;51.420;5.682;2022-07-06T12:48:04;102264.72;;;25.13;35.75
64095;BME280;50353;51.420;5.682;2022-07-06T12:52:57;102261.44;;;24.91;35.28
64095;BME280;50353;51.420;5.682;2022-07-06T12:55:27;102264.59;;;24.31;38.72
64095;BME280;50353;51.420;5.682;2022-07-06T12:57:54;102256.22;;;24.80;36.85
64095;BME280;50353;51.420;5.682;2022-07-06T13:00:20;102258.06;;;25.25;34.90
64095;BME280;50353;51.420;5.682;2022-07-06T13:02:46;102248.16;;;24.98;36.33
64095;BME280;50353;51.420;5.682;2022-07-06T13:05:14;102261.84;;;24.96;39.50
64095;BME280;50353;51.420;5.682;2022-07-06T13:07:49;102259.88;;;24.61;35.97
64095;BME280;50353;51.420;5.682;2022-07-06T13:10:15;102252.59;;;23.86;38.46